createdAt,value
2022-09-16T00:05:17.964Z,15.67
2022-09-16T00:12:19.531Z,15.61
2022-09-16T00:19:21.106Z,15.65
2022-09-16T00:26:23.855Z,15.60
2022-09-16T00:33:25.726Z,15.46
2022-09-16T00:40:27.296Z,15.48
2022-09-16T00:47:38.543Z,15.45
2022-09-16T00:54:40.143Z,15.33
2022-09-16T01:01:44.709Z,15.22
2022-09-16T01:08:46.524Z,15.10
2022-09-16T01:16:07.202Z,15.16
2022-09-16T01:23:12.035Z,15.06
2022-09-16T01:30:40.899Z,14.95
2022-09-16T01:38:07.814Z,14.95
2022-09-16T01:45:17.489Z,14.89
2022-09-16T01:52:20.551Z,14.82
2022-09-16T01:59:29.095Z,14.81
2022-09-16T02:06:30.667Z,14.80
2022-09-16T02:13:39.955Z,14.82
2022-09-16T02:20:43.451Z,14.71
2022-09-16T02:27:45.996Z,14.60
2022-09-16T02:34:49.881Z,14.52
2022-09-16T02:41:51.746Z,14.46
2022-09-16T02:49:08.175Z,14.44
2022-09-16T02:56:14.549Z,14.40
2022-09-16T03:03:16.281Z,14.37
2022-09-16T03:10:18.409Z,14.33
2022-09-16T03:17:34.198Z,14.16
2022-09-16T03:24:47.380Z,14.22
2022-09-16T03:31:55.408Z,14.17
2022-09-16T03:38:56.964Z,14.21
2022-09-16T03:45:58.584Z,14.18
2022-09-16T03:53:00.217Z,14.22
2022-09-16T04:00:02.048Z,14.27
2022-09-16T04:07:13.188Z,14.21
2022-09-16T04:14:14.784Z,14.19
2022-09-16T04:21:16.480Z,14.14
2022-09-16T04:28:18.053Z,14.22
2022-09-16T04:35:19.606Z,14.15
2022-09-16T04:42:21.199Z,14.19
2022-09-16T04:49:22.745Z,14.03
2022-09-16T04:56:26.159Z,14.13
2022-09-16T05:03:27.832Z,14.08
2022-09-16T05:10:29.445Z,14.12
2022-09-16T05:17:49.799Z,14.03
2022-09-16T05:24:52.614Z,14.03
2022-09-16T05:31:54.208Z,13.96
2022-09-16T05:39:20.976Z,14.04
2022-09-16T05:46:19.749Z,14.11
2022-09-16T05:53:21.528Z,14.14
2022-09-16T06:00:23.134Z,14.12
2022-09-16T06:07:24.673Z,14.23
2022-09-16T06:14:26.522Z,14.24
2022-09-16T06:21:28.272Z,14.14
2022-09-16T06:28:30.011Z,14.27
2022-09-16T06:35:31.600Z,14.30
2022-09-16T06:42:33.144Z,14.41
2022-09-16T06:49:38.371Z,14.48
2022-09-16T06:56:41.355Z,14.36
2022-09-16T07:03:44.984Z,14.44
2022-09-16T07:10:58.766Z,14.65
2022-09-16T07:18:00.330Z,15.02
2022-09-16T07:25:01.875Z,15.04
2022-09-16T07:32:03.421Z,14.98
2022-09-16T07:39:05.804Z,15.25
2022-09-16T07:46:08.054Z,15.41
2022-09-16T07:53:09.642Z,15.62
2022-09-16T08:00:12.094Z,15.92
2022-09-16T08:07:13.796Z,16.35
2022-09-16T08:14:15.361Z,16.48
2022-09-16T08:21:22.276Z,16.43
2022-09-16T08:28:39.948Z,16.48
2022-09-16T08:36:02.494Z,16.46
2022-09-16T08:43:44.353Z,16.60
2022-09-16T08:50:47.142Z,16.85
2022-09-16T08:57:56.779Z,17.11
2022-09-16T09:04:59.356Z,17.43
2022-09-16T09:12:39.521Z,17.66
2022-09-16T09:20:07.782Z,17.83
2022-09-16T09:27:23.334Z,17.86
2022-09-16T09:34:59.859Z,18.20
2022-09-16T09:42:21.169Z,18.65
2022-09-16T09:49:31.646Z,18.90
2022-09-16T09:56:44.952Z,18.74
2022-09-16T10:03:48.189Z,18.75
2022-09-16T10:10:54.978Z,18.69
2022-09-16T10:17:58.924Z,18.90
2022-09-16T10:25:18.671Z,20.45
2022-09-16T10:32:20.372Z,20.65
2022-09-16T10:39:24.038Z,20.18
2022-09-16T10:46:25.767Z,20.13
2022-09-16T10:53:32.901Z,20.42
2022-09-16T11:00:59.858Z,20.62
2022-09-16T11:08:29.383Z,21.42
2022-09-16T11:15:49.950Z,22.72
2022-09-16T11:23:35.837Z,21.57
2022-09-16T11:30:48.937Z,20.84
2022-09-16T11:38:25.530Z,21.42
2022-09-16T11:45:39.281Z,21.01
2022-09-16T11:53:12.751Z,23.09
2022-09-16T12:00:17.067Z,23.64
2022-09-16T12:07:24.756Z,23.26
2022-09-16T12:14:29.787Z,22.37
2022-09-16T12:21:35.008Z,23.92
2022-09-16T12:28:37.855Z,25.15
2022-09-16T12:35:47.831Z,24.83
2022-09-16T12:43:10.931Z,24.97
2022-09-16T12:50:13.115Z,24.35
2022-09-16T12:57:33.611Z,24.04
2022-09-16T13:04:39.393Z,24.14
2022-09-16T13:19:24.303Z,26.29
2022-09-16T13:26:25.937Z,27.04
2022-09-16T13:33:29.146Z,26.90
2022-09-16T13:40:31.121Z,26.15
2022-09-16T13:47:40.127Z,26.23
2022-09-16T13:55:06.309Z,26.36
2022-09-16T14:02:29.302Z,26.74
2022-09-16T14:10:07.753Z,26.90
2022-09-16T14:17:17.126Z,26.91
2022-09-16T14:24:19.802Z,27.14
2022-09-16T14:31:29.210Z,26.74
2022-09-16T14:38:45.890Z,26.66
2022-09-16T14:45:53.122Z,26.45
2022-09-16T14:53:05.775Z,25.27
2022-09-16T15:00:12.551Z,25.71
2022-09-16T15:07:18.191Z,25.97
2022-09-16T15:14:19.921Z,25.27
2022-09-16T15:21:26.325Z,24.54
2022-09-16T15:28:28.014Z,23.34
2022-09-16T15:35:33.383Z,22.81
2022-09-16T15:42:34.982Z,22.46
2022-09-16T15:49:38.276Z,22.29
2022-09-16T15:56:48.653Z,22.15
2022-09-16T16:03:57.996Z,21.79
2022-09-16T16:11:07.941Z,21.79
2022-09-16T16:18:10.634Z,21.55
2022-09-16T16:25:13.144Z,21.55
2022-09-16T16:32:15.693Z,21.48
2022-09-16T16:39:17.245Z,21.32
2022-09-16T16:46:18.851Z,21.05
2022-09-16T16:53:20.492Z,20.94
2022-09-16T17:00:22.102Z,20.83
2022-09-16T17:07:26.579Z,20.40
2022-09-16T17:14:29.736Z,20.18
2022-09-16T17:21:32.447Z,19.79
2022-09-16T17:28:34.022Z,19.60
2022-09-16T17:35:36.248Z,19.33
2022-09-16T17:42:37.834Z,19.18
2022-09-16T17:49:39.371Z,19.05
2022-09-16T17:56:42.581Z,18.88
2022-09-16T18:03:45.531Z,18.74
2022-09-16T18:10:52.693Z,18.62
2022-09-16T18:17:54.443Z,18.48
2022-09-16T18:24:56.017Z,18.18
2022-09-16T18:31:58.320Z,18.13
2022-09-16T18:38:59.911Z,18.07
2022-09-16T18:46:12.216Z,18.09
2022-09-16T18:53:13.800Z,18.00
2022-09-16T19:00:15.563Z,17.93
2022-09-16T19:07:19.193Z,17.86
2022-09-16T19:14:24.138Z,17.72
2022-09-16T19:21:25.745Z,17.61
2022-09-16T19:28:27.350Z,17.69
2022-09-16T19:35:32.406Z,17.58
2022-09-16T19:42:33.959Z,17.31
2022-09-16T19:49:35.526Z,17.26
2022-09-16T19:56:37.118Z,17.16
2022-09-16T20:03:40.763Z,17.11
2022-09-16T20:10:42.309Z,16.74
2022-09-16T20:17:43.933Z,16.37
2022-09-16T20:24:45.481Z,16.30
2022-09-16T20:31:48.145Z,16.24
2022-09-16T20:38:49.974Z,16.03
2022-09-16T20:45:51.591Z,15.75
2022-09-16T20:52:53.240Z,15.53
2022-09-16T20:59:54.812Z,15.57
2022-09-16T21:06:56.370Z,15.48
2022-09-16T21:13:59.447Z,15.24
2022-09-16T21:21:14.447Z,15.22
2022-09-16T21:28:15.989Z,15.08
2022-09-16T21:35:17.951Z,14.79
2022-09-16T21:42:19.518Z,14.59
2022-09-16T21:49:28.966Z,14.66
2022-09-16T21:56:30.997Z,14.60
2022-09-16T22:03:32.577Z,14.59
2022-09-16T22:10:34.138Z,14.63
2022-09-16T22:17:35.749Z,14.63
2022-09-16T22:24:37.313Z,14.59
2022-09-16T22:31:40.496Z,14.63
2022-09-16T22:38:52.304Z,14.56
2022-09-16T22:45:53.894Z,14.63
2022-09-16T22:52:55.452Z,14.62
2022-09-16T22:59:57.014Z,14.53
2022-09-16T23:06:58.745Z,14.48
2022-09-16T23:14:01.127Z,14.57
2022-09-16T23:21:07.325Z,14.59
2022-09-16T23:28:09.521Z,14.72
2022-09-16T23:35:11.167Z,14.67
2022-09-16T23:42:12.754Z,14.71
2022-09-16T23:49:16.925Z,14.76
2022-09-16T23:56:18.874Z,14.76
